Date,TemperatureHighF,TemperatureAvgF,TemperatureLowF,DewpointHighF,DewpointAvgF,DewpointLowF,HumidityHigh,HumidityAvg,HumidityLow,PressureMaxIn,PressureMinIn,WindSpeedMaxMPH,WindSpeedAvgMPH,GustSpeedMaxMPH,PrecipitationSumIn
2013-4-1,62,50,39,42,37,27,98,65,42,30.20,29.93,15,4,15,0.00
2013-4-2,49,44,40,32,26,20,69,50,34,30.32,30.20,14,4,14,0.00
2013-4-3,55,47,37,28,25,21,60,43,29,30.35,30.19,20,7,20,0.00
2013-4-4,46,44,40,45,38,25,97,80,44,30.19,30.03,12,2,12,0.29
2013-4-5,70,53,37,47,40,36,98,67,29,30.16,30.05,13,2,13,0.00
2013-4-6,76,60,39,48,40,37,92,53,26,30.13,29.92,18,5,18,0.00
2013-4-7,76,67,61,56,49,42,66,53,41,30.03,29.94,18,6,18,0.00
2013-4-8,79,68,56,59,54,49,81,62,43,29.99,29.88,22,5,22,0.00
2013-4-9,78,70,57,65,61,52,90,75,62,30.06,29.93,15,4,15,0.00
2013-4-10,87,77,69,65,62,57,80,62,43,29.99,29.72,20,6,20,0.00
2013-4-11,78,60,49,62,55,46,97,86,51,29.74,29.58,15,5,15,2.35
2013-4-12,64,52,38,46,41,36,96,69,44,30.03,29.74,20,5,20,0.00
2013-4-13,69,54,36,46,38,34,94,59,30,30.13,29.98,9,2,9,0.00
2013-4-14,76,61,46,53,47,42,92,64,34,29.99,29.82,26,5,26,0.00
2013-4-15,85,70,55,61,57,52,93,65,37,29.96,29.84,15,4,15,0.00
2013-4-16,81,74,67,70,66,61,93,78,65,30.08,29.94,15,4,15,0.00
2013-4-17,89,77,64,71,66,63,97,72,45,30.10,29.88,17,4,17,0.00
2013-4-18,85,77,55,68,64,54,95,66,49,29.88,29.58,24,10,24,1.19
2013-4-19,55,45,38,54,38,32,96,77,57,30.13,29.63,20,6,20,0.18
2013-4-20,63,49,33,42,36,31,97,66,35,30.34,30.14,13,2,13,0.01
2013-4-21,67,53,37,43,36,28,90,57,25,30.42,30.25,13,3,13,0.00
2013-4-22,76,60,42,49,44,38,91,61,33,30.28,30.06,12,2,12,0.00
2013-4-23,77,65,51,59,54,47,94,70,49,30.11,29.91,18,5,18,0.00
2013-4-24,68,51,38,60,46,36,95,84,70,30.32,29.84,18,5,18,0.58
2013-4-25,67,50,32,45,39,31,97,72,37,30.41,30.31,12,2,12,0.01
2013-4-26,55,49,41,51,46,39,96,91,71,30.48,30.28,10,2,10,0.31
2013-4-27,62,56,50,60,55,49,98,97,93,30.36,29.92,15,3,15,3.65
2013-4-28,65,59,50,59,55,49,99,90,69,29.97,29.89,12,2,12,0.04
2013-4-29,77,60,46,58,52,45,98,78,43,30.04,29.90,12,2,12,0.00
2013-4-30,84,66,49,62,55,48,97,72,36,30.01,29.92,12,2,12,0.00